EW2210 Bisignano IT current weather conditions

sailwx.info

Air temperature 11.7° C
Dewpoint 4.9° C

Last reported at 2019-Dec-15 19:55 UTC.
Time now 2019-Dec-15 20:25 UTC

Location: N 39°50' E 016°16'.
View on Google Maps.

See reports from other nearby stations

  
Tides and Currents Weather Stations Pressure Air Temp Water Temp Dewpoint Dewpoint Depression Visibility Wind Speed Wind Dir Waves Ship Positions
date/time (UTC)wind fromknots sea level pressurealtimeterstation pressurevisibilityair tempwater tempwave heightnotes
2019-Dec-15 19:55 11.7
2019-Dec-15 19:46 038 0 gusting 2 12.2
2019-Dec-15 19:37 041 1 gusting 2 12.2
2019-Dec-15 19:28 054 1 gusting 2 12.2
2019-Dec-15 19:19 039 2 gusting 2 12.8
2019-Dec-15 19:10 029 0 gusting 2 12.8
2019-Dec-15 19:01 027 13.3
2019-Dec-15 18:52 131 0 gusting 2 13.9
2019-Dec-15 18:43 140 1 gusting 3 13.9
2019-Dec-15 18:34 092 1 gusting 3 13.3
2019-Dec-15 18:25 130 13.3
2019-Dec-15 18:16 138 0 gusting 3 13.3
2019-Dec-15 18:07 179 1 gusting 3 13.3
2019-Dec-15 17:58 199 4 gusting 5 13.3
2019-Dec-15 17:49 204 5 gusting 6 13.3
2019-Dec-15 17:40 206 4 gusting 5 13.3
2019-Dec-15 17:31 198 1 gusting 3 13.3
2019-Dec-15 17:22 13.9
2019-Dec-15 17:13 181 0 gusting 1 13.9
2019-Dec-15 17:04 199 1 gusting 3 13.9
2019-Dec-15 16:55 193 1 gusting 4 14.4
2019-Dec-15 16:46 200 1 gusting 4 14.4
2019-Dec-15 16:37 200 1 gusting 4 14.4
2019-Dec-15 16:28 195 2 gusting 6 14.4
2019-Dec-15 16:19 195 2 gusting 6 14.4
2019-Dec-15 16:10 203 3 gusting 6 15.0
2019-Dec-15 16:01 198 6 gusting 9 15.0
2019-Dec-15 15:52 204 7 gusting 10 15.6
2019-Dec-15 15:43 203 7 gusting 8 15.6
2019-Dec-15 15:34 212 6 gusting 8 15.6
2019-Dec-15 15:25 208 5 gusting 6 15.6
2019-Dec-15 15:16 204 6 gusting 7 16.1
2019-Dec-15 15:07 212 6 gusting 6 16.7
2019-Dec-15 14:58 207 6 gusting 7 17.2
2019-Dec-15 14:49 217 6 gusting 9 17.2
2019-Dec-15 14:40 204 6 gusting 7 17.8
2019-Dec-15 14:31 203 6 gusting 8 17.8
2019-Dec-15 14:22 207 7 gusting 10 17.8
2019-Dec-15 14:13 194 7 gusting 10 18.3
2019-Dec-15 14:04 212 6 gusting 9 18.3
2019-Dec-15 13:55 196 6 gusting 9 18.9
2019-Dec-15 13:46 220 6 gusting 9 18.9
2019-Dec-15 13:37 198 6 gusting 8 18.9
2019-Dec-15 13:28 212 7 gusting 10 18.9
2019-Dec-15 13:19 205 8 gusting 12 18.9
2019-Dec-15 13:10 210 8 gusting 12 18.9
2019-Dec-15 13:01 213 7 gusting 11 18.9
2019-Dec-15 12:52 193 9 gusting 14 18.9
2019-Dec-15 12:43 195 9 gusting 12 18.9
2019-Dec-15 12:34 210 8 gusting 12 18.9
2019-Dec-15 12:25 213 9 gusting 13 18.3
2019-Dec-15 12:16 207 11 gusting 15 18.3
2019-Dec-15 12:07 211 10 gusting 15 17.8
2019-Dec-15 11:58 210 9 gusting 14 17.2
2019-Dec-15 11:49 216 10 gusting 14 17.2
2019-Dec-15 11:40 207 10 gusting 13 17.2
2019-Dec-15 11:31 199 10 gusting 13 17.2
2019-Dec-15 11:22 198 10 gusting 14 17.2
2019-Dec-15 11:13 206 10 gusting 13 17.2
2019-Dec-15 11:04 205 11 gusting 13 18.3
2019-Dec-15 10:55 216 11 gusting 13 18.3
2019-Dec-15 10:46 191 11 gusting 13 18.3
2019-Dec-15 10:37 210 11 gusting 13 17.8
2019-Dec-15 10:28 204 12 gusting 14 17.8
2019-Dec-15 10:19 203 13 gusting 16 17.8
2019-Dec-15 10:10 198 11 gusting 15 17.8
2019-Dec-15 10:01 207 12 gusting 14 17.8
2019-Dec-15 09:52 204 11 gusting 13 17.8
2019-Dec-15 09:43 206 10 gusting 13 17.2
2019-Dec-15 09:34 208 12 gusting 15 17.2
2019-Dec-15 09:25 210 8 gusting 12 17.2
2019-Dec-15 09:16 213 5 gusting 6 17.2
2019-Dec-15 09:07 204 4 gusting 6 16.1
2019-Dec-15 08:58 205 4 gusting 6 16.1
2019-Dec-15 08:49 191 2 gusting 4 16.1
2019-Dec-15 08:40 201 4 gusting 4 15.6
2019-Dec-15 08:31 215 3 gusting 4 15.0
2019-Dec-15 08:22 201 2 gusting 4 15.0
2019-Dec-15 08:13 210 3 gusting 5 14.4
2019-Dec-15 08:04 219 2 gusting 3 14.4
2019-Dec-15 07:55 189 0 gusting 3 13.9
2019-Dec-15 07:46 12.8
2019-Dec-15 07:37 203 1 gusting 3 11.7
2019-Dec-15 07:28 184 1 gusting 2 11.7
2019-Dec-15 07:19 186 0 gusting 2 11.1
2019-Dec-15 07:10 10.6
2019-Dec-15 07:01 181 10.6
2019-Dec-15 06:52 212 1 gusting 2 10.6
2019-Dec-15 06:43 211 0 gusting 2 10.6
2019-Dec-15 06:34 10.6
2019-Dec-15 06:25 10.6
2019-Dec-15 06:16 135 10.6
2019-Dec-15 06:07 135 10.0
2019-Dec-15 05:58 135 10.6
2019-Dec-15 05:49 081 0 gusting 3 10.6
2019-Dec-15 05:40 187 10.6
2019-Dec-15 05:31 10.6
2019-Dec-15 05:22 225 10.6
2019-Dec-15 05:13 189 1 gusting 1 11.1
2019-Dec-15 05:04 216 1 gusting 3 11.1
2019-Dec-15 04:55 214 2 gusting 3 11.1
2019-Dec-15 04:46 202 2 gusting 4 11.1
2019-Dec-15 04:37 10.6
2019-Dec-15 04:28 10.0
2019-Dec-15 04:19 10.6
2019-Dec-15 04:10 10.6
2019-Dec-15 04:01 211 10.6
2019-Dec-15 03:52 052 0 gusting 1 10.0
2019-Dec-15 03:43 046 1 gusting 3 10.0
2019-Dec-15 03:34 045 0 gusting 2 10.0
2019-Dec-15 03:25 039 1 gusting 3 10.0
2019-Dec-15 03:16 049 1 gusting 2 10.0
2019-Dec-15 03:07 046 10.6
2019-Dec-15 02:58 10.6
2019-Dec-15 02:49 181 11.1
2019-Dec-15 02:40 203 2 gusting 4 11.7
2019-Dec-15 02:31 192 3 gusting 4 11.7
2019-Dec-15 02:22 191 2 gusting 3 10.6
2019-Dec-15 02:13 176 1 gusting 3 9.4
2019-Dec-15 02:04 9.4
2019-Dec-15 01:55 210 9.4
2019-Dec-15 01:46 225 9.4
2019-Dec-15 01:37 8.9
2019-Dec-15 01:28 8.9
2019-Dec-15 01:19 225 9.4
2019-Dec-15 01:10 211 3 gusting 3 9.4
2019-Dec-15 01:01 199 2 gusting 3 8.9
2019-Dec-15 00:52 298 0 gusting 2 9.4
2019-Dec-15 00:43 181 10.0
2019-Dec-15 00:34 204 1 gusting 3 10.6
2019-Dec-15 00:25 199 0 gusting 2 10.6
2019-Dec-15 00:16 278 9.4
2019-Dec-15 00:07 191 0 gusting 1 9.4
2019-Dec-14 23:58 10.0
2019-Dec-14 23:49 171 0 gusting 1 10.0
2019-Dec-14 23:40 181 10.0
2019-Dec-14 23:31 187 0 gusting 2 10.6
2019-Dec-14 23:22 182 1 gusting 3 10.0
2019-Dec-14 23:13 208 0 gusting 2 10.6
2019-Dec-14 23:04 188 1 gusting 3 10.6
2019-Dec-14 22:55 214 10.6
2019-Dec-14 22:46 209 1 gusting 3 11.1
2019-Dec-14 22:37 353 2 gusting 3 11.7
2019-Dec-14 22:28 229 1 gusting 3 11.7
2019-Dec-14 22:19 175 2 gusting 4 11.1
2019-Dec-14 22:10 222 0 gusting 3 10.6
2019-Dec-14 22:01 051 0 gusting 2 9.4
2019-Dec-14 21:52 016 0 gusting 1 9.4
2019-Dec-14 21:43 171 1 gusting 3 9.4
2019-Dec-14 21:34 189 3 gusting 5 10.0
2019-Dec-14 21:25 190 1 gusting 5 10.6
2019-Dec-14 20:58 198 1 gusting 3 11.7
2019-Dec-14 20:49 183 2 gusting 3 11.1
2019-Dec-14 20:40 145 0 gusting 3 10.6
2019-Dec-14 20:31 10.6
2019-Dec-14 20:22 10.6
2019-Dec-14 20:13 10.6
2019-Dec-14 20:04 192 0 gusting 2 11.7
2019-Dec-14 19:55 179 2 gusting 3 11.7
2019-Dec-14 19:46 207 1 gusting 3 11.7
2019-Dec-14 19:37 193 1 gusting 3 12.2
2019-Dec-14 19:28 198 2 gusting 3 12.2
2019-Dec-14 19:19 186 3 gusting 4 12.2
2019-Dec-14 19:10 162 3 gusting 6 12.2
2019-Dec-14 19:01 173 4 gusting 5 12.2
2019-Dec-14 18:52 183 2 gusting 4 12.2
2019-Dec-14 18:43 202 3 gusting 5 12.2
2019-Dec-14 18:34 202 3 gusting 6 12.2
2019-Dec-14 18:25 198 3 gusting 4 11.7
2019-Dec-14 18:16 172 2 gusting 5 12.2
2019-Dec-14 18:07 191 4 gusting 6 12.2
2019-Dec-14 17:58 204 5 gusting 6 12.2
2019-Dec-14 17:49 204 5 gusting 6 12.2
2019-Dec-14 17:40 192 3 gusting 4 12.2
2019-Dec-14 17:31 181 3 gusting 6 12.8
2019-Dec-14 17:22 195 3 gusting 6 12.2
2019-Dec-14 17:13 184 4 gusting 6 11.7
2019-Dec-14 17:04 193 5 gusting 6 11.7
2019-Dec-14 16:55 198 3 gusting 4 12.2
2019-Dec-14 16:46 199 3 gusting 3 12.2
2019-Dec-14 16:37 185 1 gusting 4 12.2
2019-Dec-14 16:28 209 1 gusting 4 13.3
2019-Dec-14 16:19 191 5 gusting 7 13.3
2019-Dec-14 16:10 177 3 gusting 6 13.3
2019-Dec-14 16:01 179 4 gusting 6 13.3
2019-Dec-14 15:52 188 3 gusting 6 13.3
2019-Dec-14 15:43 176 4 gusting 5 13.3
2019-Dec-14 15:34 213 3 gusting 5 13.3
2019-Dec-14 15:25 214 3 gusting 5 13.9
2019-Dec-14 15:16 212 3 gusting 6 14.4
2019-Dec-14 15:07 198 4 gusting 6 15.6
2019-Dec-14 14:58 207 4 gusting 6 15.6
2019-Dec-14 14:49 215 3 gusting 5 16.1
2019-Dec-14 14:40 212 5 gusting 9 16.1
2019-Dec-14 14:31 208 2 gusting 3 16.7
2019-Dec-14 14:22 267 1 gusting 3 16.7
2019-Dec-14 14:13 337 2 gusting 6 16.1
2019-Dec-14 14:04 323 4 gusting 6 16.7
2019-Dec-14 13:55 231 2 gusting 4 17.2
2019-Dec-14 13:46 220 3 gusting 6 16.7
2019-Dec-14 13:37 213 5 gusting 6 16.7
2019-Dec-14 13:28 201 5 gusting 7 16.7
2019-Dec-14 13:19 215 6 gusting 8 16.7
2019-Dec-14 13:10 239 2 gusting 4 17.2
2019-Dec-14 13:01 190 3 gusting 5 16.7
2019-Dec-14 12:52 202 5 gusting 8 16.1
2019-Dec-14 12:43 203 7 gusting 9 16.1
2019-Dec-14 12:34 197 8 gusting 12 16.1
2019-Dec-14 12:25 200 6 gusting 9 16.1
2019-Dec-14 12:16 200 7 gusting 9 16.1
2019-Dec-14 12:07 198 6 gusting 9 16.1
2019-Dec-14 11:58 197 7 gusting 9 16.1
2019-Dec-14 11:49 213 6 gusting 8 15.6
2019-Dec-14 11:40 203 6 gusting 7 16.1
2019-Dec-14 11:31 199 6 gusting 9 15.6
2019-Dec-14 11:22 197 7 gusting 10 15.6
2019-Dec-14 11:13 208 6 gusting 9 15.6
2019-Dec-14 11:04 198 8 gusting 10 15.0
2019-Dec-14 10:55 205 8 gusting 12 15.0
2019-Dec-14 10:46 196 6 gusting 9 15.0
2019-Dec-14 10:37 207 6 gusting 9 15.0
2019-Dec-14 10:28 203 4 gusting 5 15.6
2019-Dec-14 10:19 208 5 gusting 6 15.0
2019-Dec-14 10:10 211 4 gusting 6 15.0
2019-Dec-14 10:01 216 3 gusting 6 15.0
2019-Dec-14 09:52 232 0 gusting 2 15.0
2019-Dec-14 09:43 15.0
2019-Dec-14 09:34 351 0 gusting 2 14.4
2019-Dec-14 09:25 211 2 gusting 3 15.0
2019-Dec-14 08:49 172 1 gusting 2 12.2
2019-Dec-14 08:40 081 0 gusting 2 11.7
2019-Dec-14 08:31 171 1 gusting 3 12.2
2019-Dec-14 08:22 158 1 gusting 3 11.7
2019-Dec-14 08:13 157 11.7
2019-Dec-14 08:04 101 2 gusting 6 12.2
2019-Dec-14 07:55 070 0 gusting 5 12.2
2019-Dec-14 07:46 019 3 gusting 5 12.2
2019-Dec-14 07:37 354 4 gusting 6 12.2
2019-Dec-14 07:28 342 6 gusting 9 12.2
2019-Dec-14 07:19 016 6 gusting 10 11.7
2019-Dec-14 07:10 001 4 gusting 5 11.7
2019-Dec-14 07:01 010 5 gusting 6 12.2
2019-Dec-14 06:52 357 5 gusting 10 12.2
2019-Dec-14 06:43 344 3 gusting 5 12.2
2019-Dec-14 06:34 346 5 gusting 6 12.2
2019-Dec-14 06:25 343 6 gusting 9 12.2
2019-Dec-14 06:16 315 6 gusting 11 12.2
2019-Dec-14 06:07 027 6 gusting 10 12.2
2019-Dec-14 05:58 008 6 gusting 10 12.2
2019-Dec-14 05:49 330 5 gusting 14 12.2
2019-Dec-14 05:40 350 4 gusting 6 12.2
2019-Dec-14 05:31 287 6 gusting 11 12.2
2019-Dec-14 05:22 341 7 gusting 13 12.2
2019-Dec-14 05:13 001 8 gusting 13 12.2
2019-Dec-14 05:04 005 10 gusting 13 12.2
2019-Dec-14 04:55 354 10 gusting 15 12.2
2019-Dec-14 04:46 332 11 gusting 18 12.2
2019-Dec-14 04:37 350 10 gusting 19 12.2
2019-Dec-14 04:28 343 8 gusting 13 12.2
2019-Dec-14 04:19 342 9 gusting 16 12.2
2019-Dec-14 04:10 008 6 gusting 9 12.2
2019-Dec-14 04:01 345 6 gusting 12 12.2
2019-Dec-14 03:52 331 4 gusting 13 12.2
2019-Dec-14 03:43 226 4 gusting 6 11.7
2019-Dec-14 03:34 199 3 gusting 5 11.7
2019-Dec-14 03:25 352 7 gusting 15 12.2
2019-Dec-14 03:16 278 6 gusting 11 12.2
2019-Dec-14 03:07 240 4 gusting 6 11.7
2019-Dec-14 02:58 270 6 gusting 9 11.7
2019-Dec-14 02:49 225 6 gusting 10 11.7
2019-Dec-14 02:40 213 6 gusting 10 11.7
2019-Dec-14 02:31 195 5 gusting 8 11.7
2019-Dec-14 02:22 210 6 gusting 9 11.1
2019-Dec-14 02:13 208 7 gusting 10 11.1
2019-Dec-14 02:04 193 6 gusting 10 10.6
2019-Dec-14 01:55 202 5 gusting 6 10.6
2019-Dec-14 01:46 215 7 gusting 10 10.6
2019-Dec-14 01:37 213 6 gusting 9 10.6
2019-Dec-14 01:28 207 6 gusting 10 10.6
2019-Dec-14 01:19 199 5 gusting 12 9.4
2019-Dec-14 01:10 150 3 gusting 4 8.9
2019-Dec-14 01:01 161 2 gusting 4 8.9
2019-Dec-14 00:52 239 5 gusting 13 8.9
2019-Dec-14 00:43 194 7 gusting 13 8.9
2019-Dec-14 00:34 183 7 gusting 13 8.9
2019-Dec-14 00:25 208 8 gusting 13 9.4
2019-Dec-14 00:16 214 6 gusting 9 8.9
2019-Dec-14 00:07 192 5 gusting 6 8.9
2019-Dec-13 23:58 162 3 gusting 5 8.3
2019-Dec-13 23:49 003 3 gusting 6 8.3
2019-Dec-13 23:40 356 12 gusting 22 8.9
2019-Dec-13 23:31 355 16 gusting 23 10.0
2019-Dec-13 23:22 014 9 gusting 16 10.6
2019-Dec-13 23:13 199 5 gusting 6 10.6
2019-Dec-13 23:04 198 5 gusting 6 10.6
2019-Dec-13 22:55 188 6 gusting 9 10.6
2019-Dec-13 22:46 220 5 gusting 6 10.6
2019-Dec-13 22:37 205 6 gusting 9 10.6
2019-Dec-13 22:28 200 5 gusting 9 11.1
2019-Dec-13 22:19 219 4 gusting 6 11.1
2019-Dec-13 22:10 213 6 gusting 13 11.1
2019-Dec-13 22:01 339 6 gusting 13 11.7
2019-Dec-13 21:52 042 5 gusting 10 11.7
2019-Dec-13 21:43 267 6 gusting 12 11.7
2019-Dec-13 21:34 209 7 gusting 12 11.7
2019-Dec-13 21:25 201 9 gusting 14 12.2
2019-Dec-13 21:16 199 14 gusting 22 12.2
2019-Dec-13 21:07 188 14 gusting 22 11.7
2019-Dec-13 20:58 230 9 gusting 18 11.1
2019-Dec-13 20:49 251 12 gusting 19 11.7
2019-Dec-13 20:40 281 15 gusting 26 12.8
2019-Dec-13 20:31 192 14 gusting 26 13.3
2019-Dec-13 20:22 219 13 gusting 19 14.4
2019-Dec-13 20:13 209 19 gusting 31 15.0
2019-Dec-13 20:04 201 20 gusting 27 14.4